sensor_id;sensor_type;location;lat;lon;timestamp;temperature;humidity
32698;DHT22;19087;51.062;3.754;2022-10-17T00:01:11;14.60;99.90
32698;DHT22;19087;51.062;3.754;2022-10-17T00:03:37;14.60;99.90
32698;DHT22;19087;51.062;3.754;2022-10-17T00:06:07;14.60;99.90
32698;DHT22;19087;51.062;3.754;2022-10-17T00:08:32;14.60;99.90
32698;DHT22;19087;51.062;3.754;2022-10-17T00:10:59;14.60;99.90
32698;DHT22;19087;51.062;3.754;2022-10-17T00:13:25;14.60;99.90
32698;DHT22;19087;51.062;3.754;2022-10-17T00:15:50;14.60;99.90
32698;DHT22;19087;51.062;3.754;2022-10-17T00:18:16;14.60;99.90
32698;DHT22;19087;51.062;3.754;2022-10-17T00:20:42;14.60;99.90
32698;DHT22;19087;51.062;3.754;2022-10-17T00:23:07;14.60;99.90
32698;DHT22;19087;51.062;3.754;2022-10-17T00:25:33;14.60;99.90
32698;DHT22;19087;51.062;3.754;2022-10-17T00:27:58;14.60;99.90
32698;DHT22;19087;51.062;3.754;2022-10-17T00:30:25;14.60;99.90
32698;DHT22;19087;51.062;3.754;2022-10-17T00:32:50;14.60;99.90
32698;DHT22;19087;51.062;3.754;2022-10-17T00:35:16;14.60;99.90
32698;DHT22;19087;51.062;3.754;2022-10-17T00:37:41;14.60;99.90
32698;DHT22;19087;51.062;3.754;2022-10-17T00:40:07;14.70;99.90
32698;DHT22;19087;51.062;3.754;2022-10-17T00:42:33;14.70;99.90
32698;DHT22;19087;51.062;3.754;2022-10-17T00:45:01;14.80;99.90
32698;DHT22;19087;51.062;3.754;2022-10-17T00:47:28;14.70;99.90
32698;DHT22;19087;51.062;3.754;2022-10-17T00:49:53;14.70;99.90
32698;DHT22;19087;51.062;3.754;2022-10-17T00:52:20;14.80;99.90
32698;DHT22;19087;51.062;3.754;2022-10-17T00:54:50;14.80;99.90
32698;DHT22;19087;51.062;3.754;2022-10-17T00:57:19;14.80;99.90
32698;DHT22;19087;51.062;3.754;2022-10-17T00:59:47;14.70;99.90
32698;DHT22;19087;51.062;3.754;2022-10-17T01:02:16;14.70;99.90
32698;DHT22;19087;51.062;3.754;2022-10-17T01:04:43;14.70;99.90
32698;DHT22;19087;51.062;3.754;2022-10-17T01:07:09;14.70;99.90
32698;DHT22;19087;51.062;3.754;2022-10-17T01:09:35;14.70;99.90
32698;DHT22;19087;51.062;3.754;2022-10-17T01:19:56;14.70;99.90
32698;DHT22;19087;51.062;3.754;2022-10-17T01:24:47;14.70;99.90
32698;DHT22;19087;51.062;3.754;2022-10-17T01:32:45;14.80;99.90
32698;DHT22;19087;51.062;3.754;2022-10-17T01:35:21;14.80;99.90
32698;DHT22;19087;51.062;3.754;2022-10-17T01:40:15;14.90;99.90
32698;DHT22;19087;51.062;3.754;2022-10-17T01:42:53;15.00;99.90
32698;DHT22;19087;51.062;3.754;2022-10-17T01:45:28;15.00;99.90
32698;DHT22;19087;51.062;3.754;2022-10-17T01:47:55;15.10;99.90
32698;DHT22;19087;51.062;3.754;2022-10-17T01:50:23;15.10;99.90
32698;DHT22;19087;51.062;3.754;2022-10-17T01:52:51;15.10;99.90
32698;DHT22;19087;51.062;3.754;2022-10-17T01:55:21;15.10;99.90
32698;DHT22;19087;51.062;3.754;2022-10-17T01:57:53;15.10;99.90
32698;DHT22;19087;51.062;3.754;2022-10-17T02:00:22;15.20;99.90
32698;DHT22;19087;51.062;3.754;2022-10-17T02:02:48;15.20;99.90
32698;DHT22;19087;51.062;3.754;2022-10-17T02:05:17;15.30;99.90
32698;DHT22;19087;51.062;3.754;2022-10-17T02:07:44;15.30;99.90
32698;DHT22;19087;51.062;3.754;2022-10-17T02:10:12;15.30;99.90
32698;DHT22;19087;51.062;3.754;2022-10-17T02:12:44;15.40;99.90
32698;DHT22;19087;51.062;3.754;2022-10-17T02:15:33;15.40;99.90
32698;DHT22;19087;51.062;3.754;2022-10-17T02:18:20;15.50;99.90
32698;DHT22;19087;51.062;3.754;2022-10-17T02:20:54;15.50;99.90
32698;DHT22;19087;51.062;3.754;2022-10-17T02:31:10;15.70;99.90
32698;DHT22;19087;51.062;3.754;2022-10-17T02:33:46;15.70;99.90
32698;DHT22;19087;51.062;3.754;2022-10-17T02:36:15;15.70;99.90
32698;DHT22;19087;51.062;3.754;2022-10-17T02:38:43;15.70;99.90
32698;DHT22;19087;51.062;3.754;2022-10-17T02:41:12;15.80;99.90
32698;DHT22;19087;51.062;3.754;2022-10-17T02:43:39;15.80;99.90
32698;DHT22;19087;51.062;3.754;2022-10-17T02:46:07;15.90;99.90
32698;DHT22;19087;51.062;3.754;2022-10-17T02:48:34;15.90;99.90
32698;DHT22;19087;51.062;3.754;2022-10-17T02:51:10;16.00;99.90
32698;DHT22;19087;51.062;3.754;2022-10-17T02:53:38;16.00;99.90
32698;DHT22;19087;51.062;3.754;2022-10-17T02:56:07;16.10;99.90
32698;DHT22;19087;51.062;3.754;2022-10-17T02:58:37;16.10;99.90
32698;DHT22;19087;51.062;3.754;2022-10-17T03:01:03;16.20;99.90
32698;DHT22;19087;51.062;3.754;2022-10-17T03:03:30;16.20;99.90
32698;DHT22;19087;51.062;3.754;2022-10-17T03:05:55;16.20;99.90
32698;DHT22;19087;51.062;3.754;2022-10-17T03:08:21;16.20;99.90
32698;DHT22;19087;51.062;3.754;2022-10-17T03:10:47;16.20;99.90
32698;DHT22;19087;51.062;3.754;2022-10-17T03:13:14;16.30;99.90
32698;DHT22;19087;51.062;3.754;2022-10-17T03:15:40;16.30;99.90
32698;DHT22;19087;51.062;3.754;2022-10-17T03:18:06;16.40;99.90
32698;DHT22;19087;51.062;3.754;2022-10-17T03:20:32;16.60;99.90
32698;DHT22;19087;51.062;3.754;2022-10-17T03:22:58;16.70;99.90
32698;DHT22;19087;51.062;3.754;2022-10-17T03:25:23;16.80;99.90
32698;DHT22;19087;51.062;3.754;2022-10-17T03:27:51;16.70;99.90
32698;DHT22;19087;51.062;3.754;2022-10-17T03:30:18;16.70;99.90
32698;DHT22;19087;51.062;3.754;2022-10-17T03:32:43;16.70;99.90
32698;DHT22;19087;51.062;3.754;2022-10-17T03:35:09;16.60;99.90
32698;DHT22;19087;51.062;3.754;2022-10-17T03:37:34;16.60;99.90
32698;DHT22;19087;51.062;3.754;2022-10-17T03:40:00;16.50;99.90
32698;DHT22;19087;51.062;3.754;2022-10-17T03:42:25;16.50;99.90
32698;DHT22;19087;51.062;3.754;2022-10-17T03:44:51;16.40;99.90
32698;DHT22;19087;51.062;3.754;2022-10-17T03:47:16;16.40;99.90
32698;DHT22;19087;51.062;3.754;2022-10-17T03:49:42;16.40;99.90
32698;DHT22;19087;51.062;3.754;2022-10-17T03:52:11;16.30;99.90
32698;DHT22;19087;51.062;3.754;2022-10-17T03:54:37;16.30;99.90
32698;DHT22;19087;51.062;3.754;2022-10-17T03:57:02;16.20;99.90
32698;DHT22;19087;51.062;3.754;2022-10-17T03:59:28;16.20;99.90
32698;DHT22;19087;51.062;3.754;2022-10-17T04:01:53;16.30;99.90
32698;DHT22;19087;51.062;3.754;2022-10-17T04:04:20;16.20;99.90
32698;DHT22;19087;51.062;3.754;2022-10-17T04:06:45;16.30;99.90
32698;DHT22;19087;51.062;3.754;2022-10-17T04:09:11;16.30;99.90
32698;DHT22;19087;51.062;3.754;2022-10-17T04:11:39;16.30;99.90
32698;DHT22;19087;51.062;3.754;2022-10-17T04:14:05;16.30;99.90
32698;DHT22;19087;51.062;3.754;2022-10-17T04:16:31;16.20;99.90
32698;DHT22;19087;51.062;3.754;2022-10-17T04:18:57;16.30;99.90
32698;DHT22;19087;51.062;3.754;2022-10-17T04:21:23;16.30;99.90
32698;DHT22;19087;51.062;3.754;2022-10-17T04:23:53;16.30;99.90
32698;DHT22;19087;51.062;3.754;2022-10-17T04:26:19;16.20;99.90
32698;DHT22;19087;51.062;3.754;2022-10-17T04:28:44;16.20;99.90
32698;DHT22;19087;51.062;3.754;2022-10-17T04:31:11;16.20;99.90
32698;DHT22;19087;51.062;3.754;2022-10-17T04:33:37;16.20;99.90
32698;DHT22;19087;51.062;3.754;2022-10-17T04:36:04;16.20;99.90
32698;DHT22;19087;51.062;3.754;2022-10-17T04:38:30;16.20;99.90
32698;DHT22;19087;51.062;3.754;2022-10-17T04:40:56;16.20;99.90
32698;DHT22;19087;51.062;3.754;2022-10-17T04:43:22;16.20;99.90
32698;DHT22;19087;51.062;3.754;2022-10-17T04:45:47;16.20;99.90
32698;DHT22;19087;51.062;3.754;2022-10-17T04:48:14;16.30;99.90
32698;DHT22;19087;51.062;3.754;2022-10-17T04:50:40;16.30;99.90
32698;DHT22;19087;51.062;3.754;2022-10-17T04:53:06;16.40;99.90
32698;DHT22;19087;51.062;3.754;2022-10-17T04:55:37;16.50;99.90
32698;DHT22;19087;51.062;3.754;2022-10-17T05:00:31;16.50;99.90
32698;DHT22;19087;51.062;3.754;2022-10-17T05:02:57;16.60;99.90
32698;DHT22;19087;51.062;3.754;2022-10-17T05:05:22;16.60;99.90
32698;DHT22;19087;51.062;3.754;2022-10-17T05:07:48;16.70;99.90
32698;DHT22;19087;51.062;3.754;2022-10-17T05:10:14;16.70;99.90
32698;DHT22;19087;51.062;3.754;2022-10-17T05:12:41;16.90;99.90
32698;DHT22;19087;51.062;3.754;2022-10-17T05:15:07;16.90;99.90
32698;DHT22;19087;51.062;3.754;2022-10-17T05:17:34;17.00;99.90
32698;DHT22;19087;51.062;3.754;2022-10-17T05:19:59;17.10;99.90
32698;DHT22;19087;51.062;3.754;2022-10-17T05:22:25;17.10;99.90
32698;DHT22;19087;51.062;3.754;2022-10-17T05:24:50;17.10;99.90
32698;DHT22;19087;51.062;3.754;2022-10-17T05:27:16;17.10;99.90
32698;DHT22;19087;51.062;3.754;2022-10-17T05:29:41;17.00;99.90
32698;DHT22;19087;51.062;3.754;2022-10-17T05:32:07;17.00;99.90
32698;DHT22;19087;51.062;3.754;2022-10-17T05:34:34;16.90;99.90
32698;DHT22;19087;51.062;3.754;2022-10-17T05:36:59;16.80;99.90
32698;DHT22;19087;51.062;3.754;2022-10-17T05:39:25;16.80;99.90
32698;DHT22;19087;51.062;3.754;2022-10-17T05:41:50;16.80;99.90
32698;DHT22;19087;51.062;3.754;2022-10-17T05:44:16;16.80;99.90
32698;DHT22;19087;51.062;3.754;2022-10-17T05:46:43;16.80;99.90
32698;DHT22;19087;51.062;3.754;2022-10-17T05:49:09;16.70;99.90
32698;DHT22;19087;51.062;3.754;2022-10-17T05:51:35;16.80;99.90
32698;DHT22;19087;51.062;3.754;2022-10-17T05:54:00;17.00;99.90
32698;DHT22;19087;51.062;3.754;2022-10-17T05:56:28;17.20;99.90
32698;DHT22;19087;51.062;3.754;2022-10-17T05:58:53;17.20;99.90
32698;DHT22;19087;51.062;3.754;2022-10-17T06:01:19;17.30;99.90
32698;DHT22;19087;51.062;3.754;2022-10-17T06:03:44;17.30;99.90
32698;DHT22;19087;51.062;3.754;2022-10-17T06:06:12;17.00;99.90
32698;DHT22;19087;51.062;3.754;2022-10-17T06:08:38;17.00;99.90
32698;DHT22;19087;51.062;3.754;2022-10-17T06:11:03;16.90;99.90
32698;DHT22;19087;51.062;3.754;2022-10-17T06:13:29;17.00;99.90
32698;DHT22;19087;51.062;3.754;2022-10-17T06:15:56;17.20;99.90
32698;DHT22;19087;51.062;3.754;2022-10-17T06:18:21;17.40;99.90
32698;DHT22;19087;51.062;3.754;2022-10-17T06:20:49;17.50;99.90
32698;DHT22;19087;51.062;3.754;2022-10-17T06:23:14;17.40;99.90
32698;DHT22;19087;51.062;3.754;2022-10-17T06:25:40;17.20;99.90
32698;DHT22;19087;51.062;3.754;2022-10-17T06:30:39;17.30;99.90
32698;DHT22;19087;51.062;3.754;2022-10-17T06:33:05;17.60;99.90
32698;DHT22;19087;51.062;3.754;2022-10-17T06:35:30;17.60;99.90
32698;DHT22;19087;51.062;3.754;2022-10-17T06:37:56;17.90;99.90
32698;DHT22;19087;51.062;3.754;2022-10-17T06:40:21;17.60;99.90
32698;DHT22;19087;51.062;3.754;2022-10-17T06:42:48;17.50;99.90
32698;DHT22;19087;51.062;3.754;2022-10-17T06:45:15;17.30;99.90
32698;DHT22;19087;51.062;3.754;2022-10-17T06:47:40;17.20;99.90
32698;DHT22;19087;51.062;3.754;2022-10-17T06:50:06;17.10;99.90
32698;DHT22;19087;51.062;3.754;2022-10-17T06:52:31;17.10;99.90
32698;DHT22;19087;51.062;3.754;2022-10-17T06:54:57;17.00;99.90
32698;DHT22;19087;51.062;3.754;2022-10-17T06:57:22;17.00;99.90
32698;DHT22;19087;51.062;3.754;2022-10-17T06:59:48;16.90;99.90
32698;DHT22;19087;51.062;3.754;2022-10-17T07:02:13;17.00;99.90
32698;DHT22;19087;51.062;3.754;2022-10-17T07:04:39;17.10;99.90
32698;DHT22;19087;51.062;3.754;2022-10-17T07:07:04;17.10;99.90
32698;DHT22;19087;51.062;3.754;2022-10-17T07:09:30;17.20;99.90
32698;DHT22;19087;51.062;3.754;2022-10-17T07:11:57;17.40;99.90
32698;DHT22;19087;51.062;3.754;2022-10-17T07:14:23;17.60;99.90
32698;DHT22;19087;51.062;3.754;2022-10-17T07:16:56;17.60;99.90
32698;DHT22;19087;51.062;3.754;2022-10-17T07:19:22;17.60;99.90
32698;DHT22;19087;51.062;3.754;2022-10-17T07:21:48;17.40;99.90
32698;DHT22;19087;51.062;3.754;2022-10-17T07:24:13;17.20;99.90
32698;DHT22;19087;51.062;3.754;2022-10-17T07:26:39;17.10;99.90
32698;DHT22;19087;51.062;3.754;2022-10-17T07:29:04;17.00;99.90
32698;DHT22;19087;51.062;3.754;2022-10-17T07:31:31;17.00;99.90
32698;DHT22;19087;51.062;3.754;2022-10-17T07:34:00;17.00;99.90
32698;DHT22;19087;51.062;3.754;2022-10-17T07:36:26;16.90;99.90
32698;DHT22;19087;51.062;3.754;2022-10-17T07:38:51;16.90;99.90
32698;DHT22;19087;51.062;3.754;2022-10-17T07:41:17;16.90;99.90
32698;DHT22;19087;51.062;3.754;2022-10-17T07:43:43;17.00;99.90
32698;DHT22;19087;51.062;3.754;2022-10-17T07:46:09;17.00;99.90
32698;DHT22;19087;51.062;3.754;2022-10-17T07:48:36;17.10;99.90
32698;DHT22;19087;51.062;3.754;2022-10-17T07:51:03;17.10;99.90
32698;DHT22;19087;51.062;3.754;2022-10-17T07:53:29;17.20;99.90
32698;DHT22;19087;51.062;3.754;2022-10-17T07:55:55;17.20;99.90
32698;DHT22;19087;51.062;3.754;2022-10-17T07:58:20;17.20;99.90
32698;DHT22;19087;51.062;3.754;2022-10-17T08:00:46;17.10;99.90
32698;DHT22;19087;51.062;3.754;2022-10-17T08:03:13;17.10;99.90
32698;DHT22;19087;51.062;3.754;2022-10-17T08:05:38;17.00;99.90
32698;DHT22;19087;51.062;3.754;2022-10-17T08:08:04;17.00;99.90
32698;DHT22;19087;51.062;3.754;2022-10-17T08:10:30;17.00;99.90
32698;DHT22;19087;51.062;3.754;2022-10-17T08:12:55;17.00;99.90
32698;DHT22;19087;51.062;3.754;2022-10-17T08:15:22;17.00;99.90
32698;DHT22;19087;51.062;3.754;2022-10-17T08:17:48;17.00;99.90
32698;DHT22;19087;51.062;3.754;2022-10-17T08:20:14;16.90;99.90
32698;DHT22;19087;51.062;3.754;2022-10-17T08:22:39;17.00;99.90
32698;DHT22;19087;51.062;3.754;2022-10-17T08:25:05;17.00;99.90
32698;DHT22;19087;51.062;3.754;2022-10-17T08:27:32;17.10;99.90
32698;DHT22;19087;51.062;3.754;2022-10-17T08:29:57;17.30;99.90
32698;DHT22;19087;51.062;3.754;2022-10-17T08:32:24;17.40;99.90
32698;DHT22;19087;51.062;3.754;2022-10-17T08:34:51;17.50;99.90
32698;DHT22;19087;51.062;3.754;2022-10-17T08:37:16;17.60;99.90
32698;DHT22;19087;51.062;3.754;2022-10-17T08:39:42;17.70;99.90
32698;DHT22;19087;51.062;3.754;2022-10-17T08:47:34;18.10;99.90
32698;DHT22;19087;51.062;3.754;2022-10-17T08:50:01;18.10;99.90
32698;DHT22;19087;51.062;3.754;2022-10-17T08:52:35;18.10;99.90
32698;DHT22;19087;51.062;3.754;2022-10-17T08:55:03;18.10;99.90
32698;DHT22;19087;51.062;3.754;2022-10-17T08:57:29;18.30;99.90
32698;DHT22;19087;51.062;3.754;2022-10-17T08:59:54;18.40;99.90
32698;DHT22;19087;51.062;3.754;2022-10-17T09:02:26;18.10;99.90
32698;DHT22;19087;51.062;3.754;2022-10-17T09:05:02;18.00;99.90
32698;DHT22;19087;51.062;3.754;2022-10-17T09:07:36;18.20;99.90
32698;DHT22;19087;51.062;3.754;2022-10-17T09:18:01;17.90;99.90
32698;DHT22;19087;51.062;3.754;2022-10-17T09:20:35;17.60;99.90
32698;DHT22;19087;51.062;3.754;2022-10-17T09:25:33;17.80;99.90
32698;DHT22;19087;51.062;3.754;2022-10-17T09:30:30;17.80;99.90
32698;DHT22;19087;51.062;3.754;2022-10-17T09:32:58;17.70;99.90
32698;DHT22;19087;51.062;3.754;2022-10-17T09:35:23;17.70;99.90
32698;DHT22;19087;51.062;3.754;2022-10-17T09:37:49;17.90;99.90
32698;DHT22;19087;51.062;3.754;2022-10-17T09:40:49;17.90;99.90
32698;DHT22;19087;51.062;3.754;2022-10-17T09:43:09;18.00;99.90
32698;DHT22;19087;51.062;3.754;2022-10-17T09:45:39;18.00;99.90
32698;DHT22;19087;51.062;3.754;2022-10-17T09:50:39;18.00;99.90
32698;DHT22;19087;51.062;3.754;2022-10-17T09:53:11;18.00;99.90
32698;DHT22;19087;51.062;3.754;2022-10-17T09:58:04;18.20;99.90
32698;DHT22;19087;51.062;3.754;2022-10-17T10:00:34;18.40;99.90
32698;DHT22;19087;51.062;3.754;2022-10-17T10:05:32;18.50;99.90
32698;DHT22;19087;51.062;3.754;2022-10-17T10:08:02;18.60;99.90
32698;DHT22;19087;51.062;3.754;2022-10-17T10:10:29;18.40;99.90
32698;DHT22;19087;51.062;3.754;2022-10-17T10:13:02;18.30;99.90
32698;DHT22;19087;51.062;3.754;2022-10-17T10:15:35;18.30;99.90
32698;DHT22;19087;51.062;3.754;2022-10-17T10:18:02;18.20;99.90
32698;DHT22;19087;51.062;3.754;2022-10-17T10:25:30;18.70;99.90
32698;DHT22;19087;51.062;3.754;2022-10-17T10:27:56;18.90;99.90
32698;DHT22;19087;51.062;3.754;2022-10-17T10:30:27;19.10;99.90
32698;DHT22;19087;51.062;3.754;2022-10-17T10:32:58;19.20;99.90
32698;DHT22;19087;51.062;3.754;2022-10-17T10:35:30;19.20;99.90
32698;DHT22;19087;51.062;3.754;2022-10-17T10:37:57;19.40;99.90
32698;DHT22;19087;51.062;3.754;2022-10-17T10:40:30;20.00;99.90
32698;DHT22;19087;51.062;3.754;2022-10-17T10:42:57;20.00;99.90
32698;DHT22;19087;51.062;3.754;2022-10-17T10:48:17;20.40;99.90
32698;DHT22;19087;51.062;3.754;2022-10-17T10:55:46;20.30;99.90
32698;DHT22;19087;51.062;3.754;2022-10-17T10:58:20;20.30;99.90
32698;DHT22;19087;51.062;3.754;2022-10-17T11:00:47;20.50;99.90
32698;DHT22;19087;51.062;3.754;2022-10-17T11:03:32;20.20;99.90
32698;DHT22;19087;51.062;3.754;2022-10-17T11:06:04;20.10;99.90
32698;DHT22;19087;51.062;3.754;2022-10-17T11:11:19;19.90;99.90
32698;DHT22;19087;51.062;3.754;2022-10-17T11:13:57;19.90;99.90
32698;DHT22;19087;51.062;3.754;2022-10-17T11:23:59;21.10;99.90
32698;DHT22;19087;51.062;3.754;2022-10-17T11:26:28;21.10;99.90
32698;DHT22;19087;51.062;3.754;2022-10-17T11:28:54;20.70;99.90
32698;DHT22;19087;51.062;3.754;2022-10-17T11:31:21;20.90;99.90
32698;DHT22;19087;51.062;3.754;2022-10-17T11:33:57;21.10;99.90
32698;DHT22;19087;51.062;3.754;2022-10-17T11:36:28;21.20;99.90
32698;DHT22;19087;51.062;3.754;2022-10-17T11:38:56;21.10;99.90
32698;DHT22;19087;51.062;3.754;2022-10-17T11:41:26;20.90;99.90
32698;DHT22;19087;51.062;3.754;2022-10-17T11:46:22;21.00;99.90
32698;DHT22;19087;51.062;3.754;2022-10-17T11:51:15;21.10;99.90
32698;DHT22;19087;51.062;3.754;2022-10-17T11:53:53;21.30;99.90
32698;DHT22;19087;51.062;3.754;2022-10-17T11:56:30;21.30;99.90
32698;DHT22;19087;51.062;3.754;2022-10-17T12:08:57;20.80;99.90
32698;DHT22;19087;51.062;3.754;2022-10-17T12:13:53;20.80;99.90
32698;DHT22;19087;51.062;3.754;2022-10-17T12:18:49;21.20;99.90
32698;DHT22;19087;51.062;3.754;2022-10-17T12:21:16;21.30;99.90
32698;DHT22;19087;51.062;3.754;2022-10-17T12:23:49;21.40;99.90
32698;DHT22;19087;51.062;3.754;2022-10-17T12:26:24;21.50;99.90
32698;DHT22;19087;51.062;3.754;2022-10-17T12:28:51;21.50;99.90
32698;DHT22;19087;51.062;3.754;2022-10-17T12:38:44;21.90;99.90
32698;DHT22;19087;51.062;3.754;2022-10-17T12:41:10;21.90;99.90
32698;DHT22;19087;51.062;3.754;2022-10-17T12:43:46;21.90;99.90
32698;DHT22;19087;51.062;3.754;2022-10-17T12:46:12;21.90;99.90
32698;DHT22;19087;51.062;3.754;2022-10-17T12:48:58;21.90;99.90
32698;DHT22;19087;51.062;3.754;2022-10-17T12:51:24;21.80;99.90
32698;DHT22;19087;51.062;3.754;2022-10-17T12:54:00;21.80;99.90
32698;DHT22;19087;51.062;3.754;2022-10-17T12:56:30;21.50;99.90
32698;DHT22;19087;51.062;3.754;2022-10-17T12:58:58;21.50;99.90
32698;DHT22;19087;51.062;3.754;2022-10-17T13:01:28;21.60;99.90
32698;DHT22;19087;51.062;3.754;2022-10-17T13:03:55;21.50;99.90
32698;DHT22;19087;51.062;3.754;2022-10-17T13:06:22;21.60;99.90
32698;DHT22;19087;51.062;3.754;2022-10-17T13:08:52;21.70;99.90
32698;DHT22;19087;51.062;3.754;2022-10-17T13:11:26;21.80;99.90
32698;DHT22;19087;51.062;3.754;2022-10-17T13:13:53;22.00;99.90
32698;DHT22;19087;51.062;3.754;2022-10-17T13:18:53;22.20;99.90
32698;DHT22;19087;51.062;3.754;2022-10-17T13:21:18;22.30;99.90
32698;DHT22;19087;51.062;3.754;2022-10-17T13:23:44;22.40;99.90
32698;DHT22;19087;51.062;3.754;2022-10-17T13:26:13;22.40;99.90
32698;DHT22;19087;51.062;3.754;2022-10-17T13:28:40;22.40;99.90
32698;DHT22;19087;51.062;3.754;2022-10-17T13:31:05;22.60;99.90
32698;DHT22;19087;51.062;3.754;2022-10-17T13:33:36;22.70;99.90
32698;DHT22;19087;51.062;3.754;2022-10-17T13:36:05;22.60;99.90
32698;DHT22;19087;51.062;3.754;2022-10-17T13:38:32;22.60;99.90
32698;DHT22;19087;51.062;3.754;2022-10-17T13:40:58;22.70;99.90
32698;DHT22;19087;51.062;3.754;2022-10-17T13:43:24;22.50;99.90
32698;DHT22;19087;51.062;3.754;2022-10-17T13:45:51;22.40;99.90
32698;DHT22;19087;51.062;3.754;2022-10-17T13:48:23;22.10;99.90
32698;DHT22;19087;51.062;3.754;2022-10-17T13:50:54;21.60;99.90
32698;DHT22;19087;51.062;3.754;2022-10-17T13:55:49;21.30;99.90
32698;DHT22;19087;51.062;3.754;2022-10-17T13:58:15;21.20;99.90
32698;DHT22;19087;51.062;3.754;2022-10-17T14:00:42;20.90;99.90
32698;DHT22;19087;51.062;3.754;2022-10-17T14:03:08;21.00;99.90
32698;DHT22;19087;51.062;3.754;2022-10-17T14:05:33;21.10;99.90
32698;DHT22;19087;51.062;3.754;2022-10-17T14:08:00;20.90;99.90
32698;DHT22;19087;51.062;3.754;2022-10-17T14:12:55;21.10;99.90
32698;DHT22;19087;51.062;3.754;2022-10-17T14:15:32;21.20;99.90
32698;DHT22;19087;51.062;3.754;2022-10-17T14:18:02;21.50;99.90
32698;DHT22;19087;51.062;3.754;2022-10-17T14:20:29;21.70;99.90
32698;DHT22;19087;51.062;3.754;2022-10-17T14:22:55;21.70;99.90
32698;DHT22;19087;51.062;3.754;2022-10-17T14:30:36;21.50;99.90
32698;DHT22;19087;51.062;3.754;2022-10-17T14:33:04;21.40;99.90
32698;DHT22;19087;51.062;3.754;2022-10-17T14:35:30;21.40;99.90
32698;DHT22;19087;51.062;3.754;2022-10-17T14:37:58;21.40;99.90
32698;DHT22;19087;51.062;3.754;2022-10-17T14:40:25;21.20;99.90
32698;DHT22;19087;51.062;3.754;2022-10-17T14:42:55;21.10;99.90
32698;DHT22;19087;51.062;3.754;2022-10-17T14:47:49;20.90;99.90
32698;DHT22;19087;51.062;3.754;2022-10-17T14:52:57;20.60;99.90
32698;DHT22;19087;51.062;3.754;2022-10-17T14:55:25;20.70;99.90
32698;DHT22;19087;51.062;3.754;2022-10-17T14:57:50;20.60;99.90
32698;DHT22;19087;51.062;3.754;2022-10-17T15:00:18;20.30;99.90
32698;DHT22;19087;51.062;3.754;2022-10-17T15:02:44;20.30;99.90
32698;DHT22;19087;51.062;3.754;2022-10-17T15:05:10;20.40;99.90
32698;DHT22;19087;51.062;3.754;2022-10-17T15:07:36;20.50;99.90
32698;DHT22;19087;51.062;3.754;2022-10-17T15:10:01;20.60;99.90
32698;DHT22;19087;51.062;3.754;2022-10-17T15:12:27;20.50;99.90
32698;DHT22;19087;51.062;3.754;2022-10-17T15:14:52;20.40;99.90
32698;DHT22;19087;51.062;3.754;2022-10-17T15:17:19;20.40;99.90
32698;DHT22;19087;51.062;3.754;2022-10-17T15:19:46;20.50;99.90
32698;DHT22;19087;51.062;3.754;2022-10-17T15:22:11;20.40;99.90
32698;DHT22;19087;51.062;3.754;2022-10-17T15:24:37;20.30;99.90
32698;DHT22;19087;51.062;3.754;2022-10-17T15:27:05;20.20;99.90
32698;DHT22;19087;51.062;3.754;2022-10-17T15:29:31;20.30;99.90
32698;DHT22;19087;51.062;3.754;2022-10-17T15:31:56;20.40;99.90
32698;DHT22;19087;51.062;3.754;2022-10-17T15:34:22;20.70;99.90
32698;DHT22;19087;51.062;3.754;2022-10-17T15:36:49;20.70;99.90
32698;DHT22;19087;51.062;3.754;2022-10-17T15:39:15;20.40;99.90
32698;DHT22;19087;51.062;3.754;2022-10-17T15:41:40;20.30;99.90
32698;DHT22;19087;51.062;3.754;2022-10-17T15:44:06;20.20;99.90
32698;DHT22;19087;51.062;3.754;2022-10-17T15:46:32;20.20;99.90
32698;DHT22;19087;51.062;3.754;2022-10-17T15:49:02;20.10;99.90
32698;DHT22;19087;51.062;3.754;2022-10-17T15:51:28;20.00;99.90
32698;DHT22;19087;51.062;3.754;2022-10-17T15:53:54;20.00;99.90
32698;DHT22;19087;51.062;3.754;2022-10-17T15:56:28;20.00;99.90
32698;DHT22;19087;51.062;3.754;2022-10-17T15:58:54;19.90;99.90
32698;DHT22;19087;51.062;3.754;2022-10-17T16:04:23;19.90;99.90
32698;DHT22;19087;51.062;3.754;2022-10-17T16:06:52;19.70;99.90
32698;DHT22;19087;51.062;3.754;2022-10-17T16:09:17;19.80;99.90
32698;DHT22;19087;51.062;3.754;2022-10-17T16:11:43;19.60;99.90
32698;DHT22;19087;51.062;3.754;2022-10-17T16:14:10;19.60;99.90
32698;DHT22;19087;51.062;3.754;2022-10-17T16:16:36;19.70;99.90
32698;DHT22;19087;51.062;3.754;2022-10-17T16:19:02;19.70;99.90
32698;DHT22;19087;51.062;3.754;2022-10-17T16:21:29;19.70;99.90
32698;DHT22;19087;51.062;3.754;2022-10-17T16:23:55;19.70;99.90
32698;DHT22;19087;51.062;3.754;2022-10-17T16:26:21;19.70;99.90
32698;DHT22;19087;51.062;3.754;2022-10-17T16:28:47;19.90;99.90
32698;DHT22;19087;51.062;3.754;2022-10-17T16:31:22;19.70;99.90
32698;DHT22;19087;51.062;3.754;2022-10-17T16:33:54;19.50;99.90
32698;DHT22;19087;51.062;3.754;2022-10-17T16:36:20;19.40;99.90
32698;DHT22;19087;51.062;3.754;2022-10-17T16:38:45;19.20;99.90
32698;DHT22;19087;51.062;3.754;2022-10-17T16:43:56;19.20;99.90
32698;DHT22;19087;51.062;3.754;2022-10-17T16:46:23;19.10;99.90
32698;DHT22;19087;51.062;3.754;2022-10-17T16:48:49;19.10;99.90
32698;DHT22;19087;51.062;3.754;2022-10-17T16:51:15;19.00;99.90
32698;DHT22;19087;51.062;3.754;2022-10-17T16:53:42;19.00;99.90
32698;DHT22;19087;51.062;3.754;2022-10-17T16:56:11;18.80;99.90
32698;DHT22;19087;51.062;3.754;2022-10-17T16:58:38;18.80;99.90
32698;DHT22;19087;51.062;3.754;2022-10-17T17:01:06;18.90;99.90
32698;DHT22;19087;51.062;3.754;2022-10-17T17:03:33;19.00;99.90
32698;DHT22;19087;51.062;3.754;2022-10-17T17:06:02;18.90;99.90
32698;DHT22;19087;51.062;3.754;2022-10-17T17:08:28;18.80;99.90
32698;DHT22;19087;51.062;3.754;2022-10-17T17:10:56;18.70;99.90
32698;DHT22;19087;51.062;3.754;2022-10-17T17:13:23;18.60;99.90
32698;DHT22;19087;51.062;3.754;2022-10-17T17:15:49;18.40;99.90
32698;DHT22;19087;51.062;3.754;2022-10-17T17:18:21;18.30;99.90
32698;DHT22;19087;51.062;3.754;2022-10-17T17:20:46;18.30;99.90
32698;DHT22;19087;51.062;3.754;2022-10-17T17:23:13;18.30;99.90
32698;DHT22;19087;51.062;3.754;2022-10-17T17:25:39;18.20;99.90
32698;DHT22;19087;51.062;3.754;2022-10-17T17:28:05;18.30;99.90
32698;DHT22;19087;51.062;3.754;2022-10-17T17:30:32;18.30;99.90
32698;DHT22;19087;51.062;3.754;2022-10-17T17:32:59;18.30;99.90
32698;DHT22;19087;51.062;3.754;2022-10-17T17:35:24;18.20;99.90
32698;DHT22;19087;51.062;3.754;2022-10-17T17:37:50;18.10;99.90
32698;DHT22;19087;51.062;3.754;2022-10-17T17:40:17;18.00;99.90
32698;DHT22;19087;51.062;3.754;2022-10-17T17:42:42;18.00;99.90